Time;durP1;ratioP1;P1;durP2;ratioP2;P2;SDS_P1;SDS_P2;PMS_P1;PMS_P2;Temp;Humidity;BMP_temperature;BMP_pressure;BME280_temperature;BME280_humidity;BME280_pressure;Samples;Min_cycle;Max_cycle;Signal;HPM_P1;HPM_P2
2021/03/17 00:00:05;;;;;;;2.10;1.65;;;9.60;99.90;;;;;;5091268;28;20560;-80
2021/03/17 00:02:33;;;;;;;3.42;1.55;;;9.60;99.90;;;;;;5094011;28;20217;-79
2021/03/17 00:04:59;;;;;;;2.40;1.40;;;9.60;99.90;;;;;;5094229;28;20213;-79
2021/03/17 00:07:26;;;;;;;3.97;1.60;;;9.50;99.90;;;;;;5087195;28;20264;-78
2021/03/17 00:09:52;;;;;;;3.72;1.70;;;9.60;99.90;;;;;;5094532;28;20213;-79
2021/03/17 00:12:18;;;;;;;2.22;1.50;;;9.50;99.90;;;;;;5101192;28;20604;-78
2021/03/17 00:14:44;;;;;;;1.60;1.10;;;9.50;99.90;;;;;;5115076;28;20213;-79
2021/03/17 00:17:10;;;;;;;1.73;1.45;;;9.50;99.90;;;;;;5093875;28;20641;-78
2021/03/17 00:19:37;;;;;;;2.65;1.95;;;9.50;99.90;;;;;;5097209;28;20220;-79
2021/03/17 00:22:04;;;;;;;2.63;1.58;;;9.50;99.90;;;;;;5092110;28;20624;-79
2021/03/17 00:24:30;;;;;;;4.00;1.70;;;9.50;99.90;;;;;;5077504;28;20226;-79
2021/03/17 00:26:56;;;;;;;3.00;1.45;;;9.50;99.90;;;;;;5076672;28;20202;-81
2021/03/17 00:29:22;;;;;;;2.65;1.70;;;9.50;99.90;;;;;;5083364;28;20216;-78
2021/03/17 00:31:49;;;;;;;3.15;2.08;;;9.50;99.90;;;;;;5084464;28;20213;-78
2021/03/17 00:34:15;;;;;;;1.77;1.45;;;9.50;99.90;;;;;;5077857;28;20203;-78
2021/03/17 00:36:42;;;;;;;2.22;1.75;;;9.40;99.90;;;;;;5077561;28;20218;-78
2021/03/17 00:39:08;;;;;;;3.65;1.83;;;9.40;99.90;;;;;;5090609;28;20263;-78
2021/03/17 00:41:34;;;;;;;2.28;1.40;;;9.40;99.90;;;;;;5097174;28;20239;-77
2021/03/17 00:44:01;;;;;;;1.60;1.23;;;9.40;99.90;;;;;;5097793;28;20218;-77
2021/03/17 00:46:27;;;;;;;1.80;1.38;;;9.40;99.90;;;;;;5090047;28;20218;-78
2021/03/17 00:48:53;;;;;;;3.53;1.60;;;9.40;99.90;;;;;;5077194;28;20281;-78
2021/03/17 00:51:19;;;;;;;4.60;1.90;;;9.40;99.90;;;;;;5077953;28;20190;-78
2021/03/17 00:53:46;;;;;;;2.03;1.60;;;9.40;99.90;;;;;;5078461;28;20210;-78
2021/03/17 00:56:13;;;;;;;2.65;1.40;;;9.40;99.90;;;;;;5080241;28;20716;-80
2021/03/17 00:58:39;;;;;;;3.85;1.65;;;9.40;99.90;;;;;;5092353;28;20208;-77
2021/03/17 01:01:05;;;;;;;3.10;2.00;;;9.40;99.90;;;;;;5092935;28;20710;-77
2021/03/17 01:03:31;;;;;;;2.78;1.60;;;9.40;99.90;;;;;;5091734;28;20229;-77
2021/03/17 01:05:58;;;;;;;1.73;1.30;;;9.40;99.90;;;;;;5093524;28;20217;-79
2021/03/17 01:08:24;;;;;;;1.75;1.30;;;9.40;99.90;;;;;;5090157;28;20696;-78
2021/03/17 01:10:51;;;;;;;4.22;1.90;;;9.40;99.90;;;;;;5077533;28;20251;-78
2021/03/17 01:13:18;;;;;;;2.08;1.75;;;9.30;99.90;;;;;;5079208;28;20218;-79
2021/03/17 01:15:44;;;;;;;3.45;1.67;;;9.40;99.90;;;;;;5073333;28;20205;-79
2021/03/17 01:18:11;;;;;;;2.53;1.70;;;9.40;99.90;;;;;;5073576;28;20240;-79
2021/03/17 01:20:38;;;;;;;2.28;1.60;;;9.30;99.90;;;;;;5073741;28;20234;-79
2021/03/17 01:23:05;;;;;;;2.25;1.45;;;9.30;99.90;;;;;;5073924;28;20233;-78
2021/03/17 01:25:33;;;;;;;2.90;1.58;;;9.30;99.90;;;;;;5083501;28;20212;-79
2021/03/17 01:28:03;;;;;;;2.45;1.60;;;9.30;99.90;;;;;;5081627;28;20218;-79
2021/03/17 01:30:32;;;;;;;2.72;1.63;;;9.30;99.90;;;;;;5074554;28;20280;-78
2021/03/17 01:32:58;;;;;;;1.88;1.40;;;9.30;99.90;;;;;;5086913;28;20198;-79
2021/03/17 01:35:25;;;;;;;1.50;1.30;;;9.30;99.90;;;;;;5073289;28;20210;-79
2021/03/17 01:37:51;;;;;;;2.90;2.05;;;9.30;99.90;;;;;;5073130;28;20213;-79
2021/03/17 01:40:19;;;;;;;4.65;2.47;;;9.30;99.90;;;;;;5073055;28;20887;-80
2021/03/17 01:42:45;;;;;;;5.30;1.85;;;9.30;99.90;;;;;;5072983;28;20672;-79
2021/03/17 01:45:14;;;;;;;2.28;1.38;;;9.30;99.90;;;;;;5078053;28;20218;-80
2021/03/17 01:47:42;;;;;;;4.43;1.48;;;9.30;99.90;;;;;;5072929;28;20275;-80
2021/03/17 01:50:11;;;;;;;1.88;1.33;;;9.30;99.90;;;;;;5072963;28;20202;-80
2021/03/17 01:52:38;;;;;;;4.22;1.67;;;9.30;99.90;;;;;;5084619;28;20206;-80
2021/03/17 01:55:07;;;;;;;3.95;1.45;;;9.30;99.90;;;;;;5084678;28;20221;-79
2021/03/17 01:57:33;;;;;;;4.55;1.73;;;9.30;99.90;;;;;;5075538;28;20208;-79
2021/03/17 02:00:00;;;;;;;1.55;1.45;;;9.30;99.90;;;;;;5084945;28;20279;-80
2021/03/17 02:02:27;;;;;;;2.88;1.75;;;9.30;99.90;;;;;;5077367;28;20236;-79
2021/03/17 02:04:54;;;;;;;3.40;1.90;;;9.30;99.90;;;;;;5089793;28;20222;-79
2021/03/17 02:07:20;;;;;;;2.00;1.67;;;9.30;99.90;;;;;;5073386;28;20214;-79
2021/03/17 02:09:46;;;;;;;1.73;1.42;;;9.30;99.90;;;;;;5072401;28;20581;-78
2021/03/17 02:12:25;;;;;;;1.85;1.60;;;9.30;99.90;;;;;;5079728;28;20236;-78
2021/03/17 02:15:02;;;;;;;3.35;1.75;;;9.20;99.90;;;;;;5077610;28;20276;-79
2021/03/17 02:17:30;;;;;;;4.00;1.80;;;9.20;99.90;;;;;;5072353;28;20217;-79
2021/03/17 02:20:29;;;;;;;1.48;1.38;;;9.20;99.90;;;;;;5086730;28;20259;-79
2021/03/17 02:23:03;;;;;;;1.50;1.25;;;9.20;99.90;;;;;;5091120;28;20221;-79
2021/03/17 02:26:02;;;;;;;4.22;1.95;;;9.20;99.90;;;;;;5093340;28;20228;-78
2021/03/17 02:28:40;;;;;;;4.50;2.22;;;9.20;99.90;;;;;;5067597;28;20207;-78
2021/03/17 02:31:46;;;;;;;4.65;1.92;;;9.20;99.90;;;;;;5071868;28;20216;-77
2021/03/17 02:34:15;;;;;;;1.75;1.35;;;9.20;99.90;;;;;;5071700;28;20202;-78
2021/03/17 02:36:45;;;;;;;2.20;1.70;;;9.20;99.90;;;;;;5072697;28;20244;-77
2021/03/17 02:39:17;;;;;;;2.47;1.40;;;9.20;99.90;;;;;;5071814;28;20201;-77
2021/03/17 02:41:48;;;;;;;3.80;1.58;;;9.20;99.90;;;;;;5085139;28;20209;-77
2021/03/17 02:44:18;;;;;;;4.80;1.52;;;9.20;99.90;;;;;;5079104;28;20232;-77
2021/03/17 02:46:45;;;;;;;1.83;1.33;;;9.20;99.90;;;;;;5077463;28;20190;-77
2021/03/17 02:49:17;;;;;;;4.38;2.17;;;9.20;99.90;;;;;;5091582;28;20212;-78
2021/03/17 02:51:48;;;;;;;1.95;1.30;;;9.20;99.90;;;;;;5076161;28;20267;-77
2021/03/17 02:54:16;;;;;;;9.23;1.98;;;9.20;99.90;;;;;;5071257;28;20712;-79
2021/03/17 02:56:48;;;;;;;2.45;1.73;;;9.20;99.90;;;;;;5071293;28;20662;-79
2021/03/17 02:59:17;;;;;;;2.70;2.50;;;9.20;99.90;;;;;;5072368;28;20241;-79
2021/03/17 03:01:45;;;;;;;6.18;2.40;;;9.20;99.90;;;;;;5084839;28;20206;-78
2021/03/17 03:04:13;;;;;;;2.40;1.92;;;9.20;99.90;;;;;;5088839;28;20227;-78
2021/03/17 03:06:44;;;;;;;2.47;2.05;;;9.20;99.90;;;;;;5090845;28;20271;-78
2021/03/17 03:09:11;;;;;;;4.82;1.83;;;9.20;99.90;;;;;;5091262;28;20214;-78
2021/03/17 03:11:37;;;;;;;2.90;1.63;;;9.20;99.90;;;;;;5089725;28;20210;-79
2021/03/17 03:14:05;;;;;;;2.10;1.48;;;9.20;99.90;;;;;;5073246;28;20205;-79
2021/03/17 03:16:33;;;;;;;2.75;1.70;;;9.10;99.90;;;;;;5070785;28;20221;-79
2021/03/17 03:19:01;;;;;;;5.07;1.83;;;9.10;99.90;;;;;;5071830;28;20217;-78
2021/03/17 03:21:28;;;;;;;2.63;1.90;;;9.10;99.90;;;;;;5083330;28;20248;-79
2021/03/17 03:23:58;;;;;;;3.03;1.90;;;9.10;99.90;;;;;;5075281;28;20222;-80
2021/03/17 03:26:24;;;;;;;1.67;1.58;;;9.10;99.90;;;;;;5070476;28;20198;-79
2021/03/17 03:28:53;;;;;;;3.13;2.08;;;9.10;99.90;;;;;;5070297;28;20224;-79
2021/03/17 03:31:19;;;;;;;2.30;2.10;;;9.10;99.90;;;;;;5070961;28;20194;-78
2021/03/17 03:33:46;;;;;;;2.80;1.77;;;9.10;99.90;;;;;;5078114;28;20220;-79
2021/03/17 03:36:12;;;;;;;2.00;1.80;;;9.10;99.90;;;;;;5090612;28;20200;-79
2021/03/17 03:38:38;;;;;;;1.90;1.70;;;9.10;99.90;;;;;;5090748;28;20197;-79
2021/03/17 03:41:06;;;;;;;2.10;1.80;;;9.10;99.90;;;;;;5086900;28;20214;-78
2021/03/17 03:43:33;;;;;;;1.65;1.30;;;9.10;99.90;;;;;;5070593;28;20226;-80
2021/03/17 03:45:59;;;;;;;2.10;1.90;;;9.10;99.90;;;;;;5091044;28;20238;-79
2021/03/17 03:48:25;;;;;;;1.60;1.50;;;9.00;99.90;;;;;;5090945;28;20651;-79
2021/03/17 03:50:53;;;;;;;2.80;1.60;;;9.00;99.90;;;;;;5079698;28;20205;-79
2021/03/17 03:53:34;;;;;;;2.78;1.60;;;9.00;99.90;;;;;;5076666;28;20214;-79
2021/03/17 03:56:05;;;;;;;2.55;1.55;;;9.00;99.90;;;;;;5090381;28;20556;-79
2021/03/17 03:58:35;;;;;;;1.90;1.70;;;9.00;99.90;;;;;;5087027;28;20207;-78
2021/03/17 04:01:06;;;;;;;2.97;1.58;;;9.00;99.90;;;;;;5079061;28;20214;-80
2021/03/17 04:03:35;;;;;;;2.15;1.42;;;9.00;99.90;;;;;;5070149;28;20225;-78
2021/03/17 04:06:02;;;;;;;3.70;1.73;;;9.00;99.90;;;;;;5087565;28;20585;-79
2021/03/17 04:08:30;;;;;;;1.67;1.58;;;9.00;99.90;;;;;;5070745;28;20213;-78
2021/03/17 04:10:59;;;;;;;2.53;2.10;;;9.00;99.90;;;;;;5081858;28;20209;-79
2021/03/17 04:13:28;;;;;;;2.05;1.88;;;9.00;99.90;;;;;;5090311;28;20284;-80
2021/03/17 04:15:57;;;;;;;1.65;1.38;;;8.90;99.90;;;;;;5090566;28;20221;-78
2021/03/17 04:18:28;;;;;;;1.95;1.85;;;8.90;99.90;;;;;;5090501;28;20209;-78
2021/03/17 04:20:57;;;;;;;2.00;1.80;;;8.90;99.90;;;;;;5071315;28;20229;-78
2021/03/17 04:23:26;;;;;;;2.85;1.83;;;8.90;99.90;;;;;;5070229;28;20230;-78
2021/03/17 04:25:55;;;;;;;1.95;1.48;;;8.90;99.90;;;;;;5073691;28;20194;-79
2021/03/17 04:28:24;;;;;;;1.77;1.60;;;8.90;99.90;;;;;;5080154;28;20214;-78
2021/03/17 04:30:52;;;;;;;1.50;1.30;;;8.80;99.90;;;;;;5074810;28;20217;-78
2021/03/17 04:33:20;;;;;;;3.05;2.08;;;8.80;99.90;;;;;;5073657;28;20214;-78
2021/03/17 04:35:47;;;;;;;1.90;1.67;;;8.80;99.90;;;;;;5074351;28;20190;-77
2021/03/17 04:38:15;;;;;;;1.85;1.42;;;8.80;99.90;;;;;;5074199;28;20229;-78
2021/03/17 04:40:43;;;;;;;1.63;1.52;;;8.80;99.90;;;;;;5073473;28;20240;-78
2021/03/17 04:43:11;;;;;;;1.48;1.38;;;8.80;99.90;;;;;;5073876;28;20284;-79
2021/03/17 04:45:38;;;;;;;1.30;1.20;;;8.80;99.90;;;;;;5090782;28;20247;-79
2021/03/17 04:48:06;;;;;;;1.50;1.40;;;8.80;99.90;;;;;;5079404;28;20864;-80
2021/03/17 04:50:35;;;;;;;1.40;1.10;;;8.80;99.90;;;;;;5073666;28;20217;-80
2021/03/17 04:53:02;;;;;;;1.85;1.65;;;8.80;99.90;;;;;;5073396;28;20201;-80
2021/03/17 04:55:28;;;;;;;1.27;1.15;;;8.80;99.90;;;;;;5073736;28;20378;-78
2021/03/17 04:57:57;;;;;;;1.30;1.20;;;8.70;99.90;;;;;;5074066;28;20221;-79
2021/03/17 05:00:24;;;;;;;1.80;1.35;;;8.70;99.90;;;;;;5072713;28;20218;-79
2021/03/17 05:02:54;;;;;;;3.05;2.15;;;8.70;99.90;;;;;;5091640;28;20602;-79
2021/03/17 05:05:22;;;;;;;2.10;1.90;;;8.70;99.90;;;;;;5073140;28;20657;-78
2021/03/17 05:07:51;;;;;;;1.77;1.58;;;8.70;99.90;;;;;;5072238;28;20214;-79
2021/03/17 05:10:18;;;;;;;1.50;1.30;;;8.70;99.90;;;;;;5072761;28;20309;-78
2021/03/17 05:12:45;;;;;;;1.33;1.10;;;8.70;99.90;;;;;;5072735;28;20222;-78
2021/03/17 05:15:11;;;;;;;1.33;1.23;;;8.70;99.90;;;;;;5088071;28;20742;-77
2021/03/17 05:17:39;;;;;;;1.48;1.38;;;8.80;99.90;;;;;;5090480;28;20209;-77
2021/03/17 05:20:08;;;;;;;1.88;1.65;;;8.70;99.90;;;;;;5072841;28;20195;-78
2021/03/17 05:22:35;;;;;;;1.48;1.38;;;8.70;99.90;;;;;;5073071;28;20218;-78
2021/03/17 05:25:05;;;;;;;2.85;1.70;;;8.70;99.90;;;;;;5072991;28;20202;-78
2021/03/17 05:27:34;;;;;;;2.92;1.85;;;8.70;99.90;;;;;;5081086;28;20244;-78
2021/03/17 05:30:02;;;;;;;1.50;1.40;;;8.70;99.90;;;;;;5082509;28;20218;-78
2021/03/17 05:32:29;;;;;;;1.48;1.23;;;8.70;99.90;;;;;;5081159;28;20628;-79
2021/03/17 05:34:58;;;;;;;1.13;1.02;;;8.70;99.90;;;;;;5083406;28;20202;-79
2021/03/17 05:37:25;;;;;;;1.83;1.35;;;8.70;99.90;;;;;;5078573;28;20637;-80
2021/03/17 05:39:51;;;;;;;1.27;1.10;;;8.70;99.90;;;;;;5072557;28;20685;-79
2021/03/17 05:42:18;;;;;;;3.15;1.45;;;8.70;99.90;;;;;;5072786;28;20205;-79
2021/03/17 05:44:45;;;;;;;2.10;1.10;;;8.70;99.90;;;;;;5080799;28;20561;-79
2021/03/17 05:47:11;;;;;;;1.50;1.23;;;8.70;99.90;;;;;;5073606;28;20202;-79
2021/03/17 05:49:39;;;;;;;1.23;1.00;;;8.70;99.90;;;;;;5072507;28;20217;-78
2021/03/17 05:52:07;;;;;;;2.15;1.20;;;8.70;99.90;;;;;;5074295;28;20652;-79
2021/03/17 05:54:33;;;;;;;1.23;1.00;;;8.70;99.90;;;;;;5071723;28;20199;-83
2021/03/17 05:57:00;;;;;;;1.20;1.10;;;8.70;99.90;;;;;;5072242;28;20206;-78
2021/03/17 05:59:29;;;;;;;2.08;1.48;;;8.70;99.90;;;;;;5071134;28;20210;-78
2021/03/17 06:01:56;;;;;;;3.05;1.20;;;8.60;99.90;;;;;;5071891;28;20214;-79
2021/03/17 06:04:25;;;;;;;2.58;1.25;;;8.60;99.90;;;;;;5071794;28;20214;-78
2021/03/17 06:06:52;;;;;;;3.05;1.40;;;8.70;99.90;;;;;;5072762;28;20218;-79
2021/03/17 06:09:22;;;;;;;1.13;0.80;;;8.70;99.90;;;;;;5072282;28;20194;-78
2021/03/17 06:11:50;;;;;;;1.30;0.98;;;8.60;99.90;;;;;;5071951;28;20643;-78
2021/03/17 06:14:19;;;;;;;1.25;1.10;;;8.60;99.90;;;;;;5076714;28;20252;-78
2021/03/17 06:16:48;;;;;;;1.75;1.20;;;8.60;99.90;;;;;;5091550;28;20221;-78
2021/03/17 06:19:16;;;;;;;2.20;1.10;;;8.60;99.90;;;;;;5071828;28;20186;-78
2021/03/17 06:21:44;;;;;;;1.20;1.05;;;8.60;99.90;;;;;;5071032;28;20276;-78
2021/03/17 06:24:11;;;;;;;2.42;1.00;;;8.60;99.90;;;;;;5090463;28;20217;-79
2021/03/17 06:26:39;;;;;;;2.28;1.10;;;8.60;99.90;;;;;;5077865;28;20229;-79
2021/03/17 06:29:05;;;;;;;2.28;1.00;;;8.60;99.90;;;;;;5090998;28;20214;-79
2021/03/17 06:31:33;;;;;;;1.77;0.90;;;8.70;99.90;;;;;;5071087;28;20218;-79
2021/03/17 06:34:00;;;;;;;3.35;1.52;;;8.60;99.90;;;;;;5071148;28;20206;-79
2021/03/17 06:36:27;;;;;;;2.65;1.50;;;8.60;99.90;;;;;;5071130;28;20241;-79
2021/03/17 06:39:06;;;;;;;1.52;1.25;;;8.60;99.90;;;;;;5070763;28;20226;-79
2021/03/17 06:41:46;;;;;;;1.10;0.90;;;8.60;99.90;;;;;;5071297;28;20240;-78
2021/03/17 06:44:18;;;;;;;2.10;1.00;;;8.60;99.90;;;;;;5076498;28;20227;-79
2021/03/17 06:46:44;;;;;;;2.75;1.00;;;8.60;99.90;;;;;;5077037;28;20195;-78
2021/03/17 06:49:35;;;;;;;1.60;1.30;;;8.50;99.90;;;;;;5089512;28;20210;-79
2021/03/17 06:52:21;;;;;;;1.27;0.93;;;8.50;99.90;;;;;;5079557;28;20241;-79
2021/03/17 06:55:12;;;;;;;2.00;1.10;;;8.50;99.90;;;;;;5063047;28;20218;-79
2021/03/17 06:57:41;;;;;;;1.42;1.05;;;8.50;99.90;;;;;;5071912;28;20206;-80
2021/03/17 07:00:32;;;;;;;1.90;0.90;;;8.50;99.90;;;;;;5075557;28;20678;-80
2021/03/17 07:03:02;;;;;;;1.20;1.00;;;8.50;99.90;;;;;;5091129;28;20220;-80
2021/03/17 07:05:34;;;;;;;1.33;1.23;;;8.60;99.90;;;;;;5089667;28;20611;-80
2021/03/17 07:08:01;;;;;;;2.17;1.15;;;8.50;99.90;;;;;;5082405;28;20190;-80
2021/03/17 07:10:34;;;;;;;3.33;1.13;;;8.50;99.90;;;;;;5070688;28;20677;-80
2021/03/17 07:13:01;;;;;;;3.97;1.67;;;8.50;99.90;;;;;;5070961;28;20225;-80
2021/03/17 07:15:28;;;;;;;2.30;1.17;;;8.50;99.90;;;;;;5088262;28;20218;-80
2021/03/17 07:18:11;;;;;;;1.20;1.00;;;8.50;99.90;;;;;;5085238;28;20196;-80
2021/03/17 07:20:42;;;;;;;3.78;1.40;;;8.40;99.90;;;;;;5090791;28;20236;-80
2021/03/17 07:23:29;;;;;;;1.98;1.30;;;8.40;99.90;;;;;;5085313;28;20608;-80
2021/03/17 07:26:17;;;;;;;1.73;0.90;;;8.40;99.90;;;;;;5070744;28;20194;-81
2021/03/17 07:29:06;;;;;;;1.88;1.00;;;8.40;99.90;;;;;;5071079;28;20221;-81
2021/03/17 07:31:35;;;;;;;1.33;0.90;;;8.40;99.90;;;;;;5070338;28;20192;-80
2021/03/17 07:34:12;;;;;;;2.20;1.30;;;8.40;99.90;;;;;;5074295;28;20672;-80
2021/03/17 07:36:43;;;;;;;4.75;1.40;;;8.30;99.90;;;;;;5086729;28;20209;-79
2021/03/17 07:39:13;;;;;;;1.30;1.10;;;8.40;99.90;;;;;;5076831;28;20190;-78
2021/03/17 07:41:39;;;;;;;1.92;1.00;;;8.40;99.90;;;;;;5081203;28;20197;-79
2021/03/17 07:44:08;;;;;;;1.75;0.90;;;8.30;99.90;;;;;;5073337;28;20221;-79
2021/03/17 07:46:36;;;;;;;1.60;0.90;;;8.40;99.90;;;;;;5079193;28;20194;-79
2021/03/17 07:49:03;;;;;;;2.70;1.45;;;8.30;99.90;;;;;;5077077;28;20190;-78
2021/03/17 07:51:31;;;;;;;3.83;1.20;;;8.30;99.90;;;;;;5072232;28;20194;-78
2021/03/17 07:54:00;;;;;;;6.40;1.08;;;8.40;99.90;;;;;;5079468;28;20229;-76
2021/03/17 07:56:26;;;;;;;1.20;1.00;;;8.50;99.90;;;;;;5086387;28;20218;-76
2021/03/17 07:58:54;;;;;;;4.70;1.00;;;8.50;99.90;;;;;;5073530;28;20587;-76
2021/03/17 08:01:22;;;;;;;2.67;1.10;;;8.50;99.90;;;;;;5074231;28;20201;-76
2021/03/17 08:03:50;;;;;;;2.03;1.25;;;8.50;99.90;;;;;;5087208;28;20233;-76
2021/03/17 08:06:17;;;;;;;3.67;1.15;;;8.50;99.90;;;;;;5094575;28;20564;-76
2021/03/17 08:08:45;;;;;;;1.00;0.90;;;8.50;99.90;;;;;;5087958;28;20225;-76
2021/03/17 08:11:13;;;;;;;3.03;1.35;;;8.50;99.90;;;;;;5085080;28;20210;-76
2021/03/17 08:13:42;;;;;;;2.88;1.23;;;8.50;99.90;;;;;;5074490;28;20210;-83
2021/03/17 08:16:11;;;;;;;2.58;0.95;;;8.60;99.90;;;;;;5092348;28;20204;-87
2021/03/17 08:18:48;;;;;;;1.60;1.20;;;8.60;99.90;;;;;;5091865;28;20209;-89
2021/03/17 08:21:15;;;;;;;1.88;1.02;;;8.60;99.90;;;;;;5096000;28;20217;-89
2021/03/17 08:23:43;;;;;;;1.27;1.02;;;8.60;99.90;;;;;;5092840;28;20653;-89
2021/03/17 08:26:13;;;;;;;1.35;1.25;;;8.60;99.90;;;;;;5092429;28;20209;-81
2021/03/17 08:28:47;;;;;;;2.35;1.40;;;8.60;99.90;;;;;;5086015;28;20602;-86
2021/03/17 08:31:47;;;;;;;2.92;1.20;;;8.60;99.90;;;;;;5081657;28;20194;-88
2021/03/17 08:34:28;;;;;;;3.15;2.03;;;8.60;99.90;;;;;;5082468;28;20228;-87
2021/03/17 08:36:56;;;;;;;9.90;1.40;;;8.60;99.90;;;;;;5080976;28;20220;-87
2021/03/17 08:39:49;;;;;;;5.05;1.42;;;8.60;99.90;;;;;;5096487;28;20209;-88
2021/03/17 08:42:29;;;;;;;4.03;1.77;;;8.70;99.90;;;;;;5070991;28;20229;-87
2021/03/17 08:44:57;;;;;;;1.25;1.10;;;8.60;99.90;;;;;;5085063;28;20198;-87
2021/03/17 08:47:28;;;;;;;1.58;1.30;;;8.70;99.90;;;;;;5093937;28;20225;-86
2021/03/17 08:49:56;;;;;;;3.50;1.25;;;8.70;99.90;;;;;;5076951;28;20705;-86
2021/03/17 08:52:23;;;;;;;1.30;1.10;;;8.70;99.90;;;;;;5086762;28;20712;-87
2021/03/17 08:55:09;;;;;;;1.92;1.33;;;8.70;99.90;;;;;;5096485;28;20278;-88
2021/03/17 08:57:58;;;;;;;1.52;1.42;;;8.70;99.90;;;;;;5080176;28;20216;-84
2021/03/17 09:00:47;;;;;;;1.98;1.10;;;8.70;99.90;;;;;;5081884;28;20202;-88
2021/03/17 09:03:43;;;;;;;3.30;1.52;;;8.70;99.90;;;;;;5077318;28;20234;-81
2021/03/17 09:06:34;;;;;;;1.20;1.10;;;8.60;99.90;;;;;;5082755;28;20190;-80
2021/03/17 09:09:07;;;;;;;2.90;1.10;;;8.60;99.90;;;;;;5091507;28;20205;-80
2021/03/17 09:11:54;;;;;;;2.75;1.23;;;8.60;99.90;;;;;;5089842;28;20232;-80
2021/03/17 09:14:38;;;;;;;3.28;1.50;;;8.60;99.90;;;;;;5092904;28;20217;-80
2021/03/17 09:17:27;;;;;;;2.67;1.85;;;8.70;99.90;;;;;;5091060;28;20225;-78
2021/03/17 09:20:06;;;;;;;2.95;1.00;;;8.70;99.90;;;;;;5092191;28;20692;-80
2021/03/17 09:22:38;;;;;;;1.30;1.20;;;8.70;99.90;;;;;;5073109;28;20217;-80
2021/03/17 09:25:25;;;;;;;3.67;1.40;;;8.60;99.90;;;;;;5074051;28;20214;-80
2021/03/17 09:27:55;;;;;;;2.60;1.13;;;8.60;99.90;;;;;;5079317;28;20210;-79
2021/03/17 09:30:24;;;;;;;4.07;1.40;;;8.60;99.90;;;;;;5080075;28;20194;-80
2021/03/17 09:32:58;;;;;;;1.95;1.50;;;8.70;99.90;;;;;;5089826;28;20716;-80
2021/03/17 09:35:25;;;;;;;1.77;1.67;;;8.70;99.90;;;;;;5072681;28;20221;-80
2021/03/17 09:38:00;;;;;;;2.25;1.40;;;8.60;99.90;;;;;;5081200;28;20665;-79
2021/03/17 09:40:26;;;;;;;3.00;1.27;;;8.60;99.90;;;;;;5072739;28;20197;-80
2021/03/17 09:42:52;;;;;;;2.83;1.60;;;8.60;99.90;;;;;;5072253;28;20232;-79
2021/03/17 09:45:25;;;;;;;3.17;1.45;;;8.60;99.90;;;;;;5072463;28;20210;-79
2021/03/17 09:47:56;;;;;;;3.42;1.52;;;8.60;99.90;;;;;;5083787;28;20633;-80
2021/03/17 09:50:24;;;;;;;2.00;1.48;;;8.60;99.90;;;;;;5086874;28;20631;-80
2021/03/17 09:52:51;;;;;;;1.50;1.30;;;8.60;99.90;;;;;;5081395;28;20218;-79
2021/03/17 09:55:31;;;;;;;4.28;1.60;;;8.60;99.90;;;;;;5084732;28;20218;-80
2021/03/17 09:57:59;;;;;;;1.27;0.98;;;8.60;99.90;;;;;;5092204;28;20216;-80
2021/03/17 10:00:26;;;;;;;5.93;1.27;;;8.60;99.90;;;;;;5085338;28;20553;-81
2021/03/17 10:02:52;;;;;;;2.03;1.35;;;8.60;99.90;;;;;;5071803;28;20601;-80
2021/03/17 10:05:19;;;;;;;1.38;1.17;;;8.70;99.90;;;;;;5090455;28;20595;-80
2021/03/17 10:07:45;;;;;;;2.15;1.27;;;8.70;99.90;;;;;;5082371;28;20214;-80
2021/03/17 10:10:12;;;;;;;5.13;1.40;;;8.70;99.90;;;;;;5081801;28;20217;-79
2021/03/17 10:12:38;;;;;;;3.08;1.65;;;8.70;99.90;;;;;;5092156;28;20252;-79
2021/03/17 10:15:08;;;;;;;2.97;1.65;;;8.70;99.90;;;;;;5079148;28;20206;-80
2021/03/17 10:17:36;;;;;;;2.55;1.20;;;8.70;99.90;;;;;;5071704;28;20194;-79
2021/03/17 10:20:06;;;;;;;1.75;1.20;;;8.70;99.90;;;;;;5071620;28;20210;-80
2021/03/17 10:22:33;;;;;;;4.18;1.70;;;8.70;99.90;;;;;;5091213;28;20217;-80
2021/03/17 10:25:01;;;;;;;2.97;1.30;;;8.80;99.90;;;;;;5079894;28;20693;-76
2021/03/17 10:27:31;;;;;;;1.60;1.27;;;8.80;99.90;;;;;;5089612;28;20200;-80
2021/03/17 10:30:01;;;;;;;3.83;1.15;;;8.80;99.90;;;;;;5089944;28;20185;-80
2021/03/17 10:32:28;;;;;;;1.40;1.25;;;8.80;99.90;;;;;;5087041;28;20221;-80
2021/03/17 10:34:55;;;;;;;1.77;1.10;;;8.70;99.90;;;;;;5086457;28;20292;-80
2021/03/17 10:37:22;;;;;;;2.42;0.98;;;8.80;99.90;;;;;;5091647;28;20189;-79
2021/03/17 10:39:50;;;;;;;3.33;1.42;;;8.80;99.90;;;;;;5086438;28;20218;-79
2021/03/17 10:42:21;;;;;;;2.38;1.52;;;8.90;99.90;;;;;;5084246;28;20213;-80
2021/03/17 10:45:04;;;;;;;1.92;1.40;;;8.90;99.90;;;;;;5087020;28;20233;-80
2021/03/17 10:47:30;;;;;;;2.90;1.10;;;8.90;99.90;;;;;;5086375;28;20220;-80
2021/03/17 10:49:57;;;;;;;4.82;1.10;;;8.90;99.90;;;;;;5073689;28;20218;-80
2021/03/17 10:52:33;;;;;;;1.27;1.10;;;8.90;99.90;;;;;;5083057;28;20209;-80
2021/03/17 10:55:09;;;;;;;2.05;0.98;;;8.90;99.90;;;;;;5089361;28;20213;-80
2021/03/17 10:57:35;;;;;;;3.33;1.30;;;8.90;99.90;;;;;;5088370;28;20197;-81
2021/03/17 11:00:15;;;;;;;1.20;1.10;;;8.90;99.90;;;;;;5071139;28;20221;-80
2021/03/17 11:02:41;;;;;;;1.40;1.10;;;8.90;99.90;;;;;;5089932;28;20223;-80
2021/03/17 11:05:11;;;;;;;3.10;1.60;;;8.90;99.90;;;;;;5088903;28;20308;-80
2021/03/17 11:08:05;;;;;;;2.25;1.17;;;8.90;99.90;;;;;;5091205;28;20221;-80
2021/03/17 11:10:50;;;;;;;2.10;1.05;;;8.90;99.90;;;;;;5091191;28;20218;-80
2021/03/17 11:13:34;;;;;;;3.45;1.10;;;8.90;99.90;;;;;;5089203;28;20215;-80
2021/03/17 11:16:25;;;;;;;2.13;1.30;;;8.90;99.90;;;;;;5084140;28;20212;-80
2021/03/17 11:18:53;;;;;;;1.73;1.00;;;8.90;99.90;;;;;;5072235;28;20218;-80
2021/03/17 11:21:26;;;;;;;4.05;1.00;;;8.90;99.90;;;;;;5090357;28;20221;-80
2021/03/17 11:23:54;;;;;;;5.63;1.50;;;8.90;99.90;;;;;;5088633;28;20260;-76
2021/03/17 11:26:23;;;;;;;2.35;1.45;;;8.90;99.90;;;;;;5074037;28;20205;-79
2021/03/17 11:28:50;;;;;;;3.88;1.70;;;8.90;99.90;;;;;;5086557;28;20717;-79
2021/03/17 11:31:24;;;;;;;2.10;1.15;;;8.90;99.90;;;;;;5088667;28;20270;-80
2021/03/17 11:33:51;;;;;;;1.60;1.25;;;8.90;99.90;;;;;;5080690;28;20213;-80
2021/03/17 11:36:17;;;;;;;4.40;1.05;;;9.00;99.90;;;;;;5070702;28;20613;-80
2021/03/17 11:38:44;;;;;;;4.13;1.70;;;9.00;99.90;;;;;;5071588;28;20569;-80
2021/03/17 11:41:12;;;;;;;1.23;0.93;;;9.00;99.90;;;;;;5087563;28;20262;-80
2021/03/17 11:43:38;;;;;;;2.40;1.73;;;9.00;99.90;;;;;;5086828;28;20217;-79
2021/03/17 11:46:04;;;;;;;2.35;1.33;;;9.00;99.90;;;;;;5075454;28;20560;-80
2021/03/17 11:48:31;;;;;;;2.97;1.35;;;9.00;99.90;;;;;;5089341;28;20624;-80
2021/03/17 11:51:00;;;;;;;3.28;1.35;;;9.00;99.90;;;;;;5078156;28;20226;-78
2021/03/17 11:53:27;;;;;;;2.50;1.02;;;9.00;99.90;;;;;;5070294;28;20249;-79
2021/03/17 11:55:54;;;;;;;2.40;1.15;;;9.00;99.90;;;;;;5081435;28;20209;-79
2021/03/17 11:58:21;;;;;;;3.00;1.40;;;8.90;99.90;;;;;;5070595;28;20596;-80
2021/03/17 12:00:47;;;;;;;3.53;1.35;;;8.90;99.90;;;;;;5075295;28;20635;-79
2021/03/17 12:03:13;;;;;;;1.40;1.10;;;8.90;99.90;;;;;;5090523;28;20221;-80
2021/03/17 12:05:41;;;;;;;4.25;1.75;;;8.90;99.90;;;;;;5084993;28;20213;-78
2021/03/17 12:08:08;;;;;;;4.32;2.15;;;8.90;99.90;;;;;;5084040;28;20222;-81
2021/03/17 12:10:35;;;;;;;2.53;1.20;;;8.90;99.90;;;;;;5076093;28;20194;-77
2021/03/17 12:13:02;;;;;;;3.00;1.45;;;8.90;99.90;;;;;;5070160;28;20214;-81
2021/03/17 12:15:29;;;;;;;1.85;1.20;;;8.90;99.90;;;;;;5087505;28;20194;-77
2021/03/17 12:17:56;;;;;;;6.35;1.88;;;8.90;99.90;;;;;;5088963;28;20695;-76
2021/03/17 12:20:24;;;;;;;1.30;1.13;;;9.00;99.90;;;;;;5077929;28;20229;-80
2021/03/17 12:22:51;;;;;;;2.65;1.17;;;9.00;99.90;;;;;;5073699;28;20217;-77
2021/03/17 12:25:18;;;;;;;4.75;1.60;;;8.90;99.90;;;;;;5084522;28;20201;-81
2021/03/17 12:27:44;;;;;;;4.50;1.52;;;9.00;99.90;;;;;;5073228;28;20198;-82
2021/03/17 12:30:13;;;;;;;3.15;1.42;;;9.00;99.90;;;;;;5081913;28;20206;-80
2021/03/17 12:32:40;;;;;;;2.13;1.80;;;8.90;99.90;;;;;;5068344;28;20186;-80
2021/03/17 12:35:09;;;;;;;1.20;1.08;;;9.00;99.90;;;;;;5069267;28;20209;-81
2021/03/17 12:37:36;;;;;;;2.83;1.10;;;9.00;99.90;;;;;;5068407;28;20202;-81
2021/03/17 12:40:03;;;;;;;2.78;1.27;;;9.10;99.90;;;;;;5072422;28;20260;-76
2021/03/17 12:42:30;;;;;;;2.17;1.20;;;9.10;99.90;;;;;;5083171;28;20201;-79
2021/03/17 12:44:56;;;;;;;3.38;1.20;;;9.00;99.90;;;;;;5082209;28;20282;-79
2021/03/17 12:47:23;;;;;;;6.97;1.70;;;9.00;99.90;;;;;;5080037;28;20217;-80
2021/03/17 12:49:49;;;;;;;1.00;0.90;;;9.00;99.90;;;;;;5075225;28;20209;-80
2021/03/17 12:52:15;;;;;;;2.08;1.23;;;9.00;99.90;;;;;;5087316;28;20213;-81
2021/03/17 12:54:42;;;;;;;1.45;1.23;;;9.00;99.90;;;;;;5072679;28;20210;-81
2021/03/17 12:57:09;;;;;;;3.47;1.48;;;9.00;99.90;;;;;;5073139;28;20228;-79
2021/03/17 12:59:36;;;;;;;1.77;1.13;;;9.00;99.90;;;;;;5088665;28;20209;-80
2021/03/17 13:02:02;;;;;;;1.70;1.17;;;9.00;99.90;;;;;;5079762;28;20206;-81
2021/03/17 13:04:29;;;;;;;1.38;1.00;;;9.00;99.90;;;;;;5079792;28;20252;-81
2021/03/17 13:06:55;;;;;;;2.22;1.23;;;9.00;99.90;;;;;;5080910;28;20226;-79
2021/03/17 13:09:22;;;;;;;3.17;1.38;;;9.00;99.90;;;;;;5076261;28;20218;-80
2021/03/17 13:11:48;;;;;;;1.45;1.25;;;9.00;99.90;;;;;;5091055;28;20228;-83